Time;durP1;ratioP1;P1;durP2;ratioP2;P2;SDS_P1;SDS_P2;PMS_P1;PMS_P2;Temp;Humidity;BMP_temperature;BMP_pressure;BME280_temperature;BME280_humidity;BME280_pressure;Samples;Min_cycle;Max_cycle;Signal;HPM_P1;HPM_P2
2021/08/06 00:01:06;;;;;;;10.33;9.53;;;18.30;1.00;;;;;;5106608;27;21092;-72
2021/08/06 00:03:33;;;;;;;8.83;8.07;;;18.30;1.00;;;;;;5104724;27;21224;-72
2021/08/06 00:06:00;;;;;;;9.73;9.03;;;18.30;1.00;;;;;;5103731;27;20809;-73
2021/08/06 00:08:27;;;;;;;9.30;8.60;;;18.30;1.00;;;;;;5106862;27;21283;-72
2021/08/06 00:10:53;;;;;;;9.60;8.80;;;18.30;1.00;;;;;;5103793;27;20476;-72
2021/08/06 00:13:20;;;;;;;10.13;9.33;;;18.30;1.00;;;;;;5103142;27;20621;-71
2021/08/06 00:15:46;;;;;;;10.50;9.60;;;18.30;1.00;;;;;;5090544;27;20453;-71
2021/08/06 00:18:15;;;;;;;8.87;8.20;;;18.30;1.00;;;;;;5102372;27;20969;-74
2021/08/06 00:20:41;;;;;;;9.70;9.00;;;18.30;1.00;;;;;;5102439;27;20579;-73
2021/08/06 00:23:08;;;;;;;10.00;9.17;;;18.20;1.00;;;;;;5100036;27;20500;-72
2021/08/06 00:25:35;;;;;;;11.33;10.43;;;18.20;1.00;;;;;;5099005;27;21440;-72
2021/08/06 00:28:01;;;;;;;10.27;9.47;;;18.20;1.00;;;;;;5106935;27;20928;-72
2021/08/06 00:30:28;;;;;;;10.60;9.80;;;18.20;1.00;;;;;;5102836;27;20467;-72
2021/08/06 00:32:56;;;;;;;10.67;9.77;;;18.10;1.00;;;;;;5103334;27;20444;-71
2021/08/06 00:35:24;;;;;;;11.30;10.30;;;18.10;1.00;;;;;;5103450;27;20456;-72
2021/08/06 00:37:51;;;;;;;9.90;9.10;;;18.10;1.00;;;;;;5100915;27;20461;-72
2021/08/06 00:40:19;;;;;;;11.60;10.60;;;18.10;1.00;;;;;;5100819;27;20855;-72
2021/08/06 00:42:45;;;;;;;11.93;11.03;;;18.10;1.00;;;;;;5094096;27;20460;-72
2021/08/06 00:45:12;;;;;;;11.20;10.10;;;18.10;1.00;;;;;;5103471;27;20444;-72
2021/08/06 00:47:39;;;;;;;11.77;10.80;;;18.00;1.00;;;;;;5102678;27;20727;-72
2021/08/06 00:50:07;;;;;;;11.17;10.27;;;17.90;1.00;;;;;;5104049;27;20456;-72
2021/08/06 00:52:35;;;;;;;12.10;10.90;;;17.90;1.00;;;;;;5108152;27;20437;-72
2021/08/06 00:55:02;;;;;;;11.20;10.40;;;17.90;1.00;;;;;;5106132;27;20527;-72
2021/08/06 00:57:28;;;;;;;10.50;9.77;;;17.90;1.00;;;;;;5106543;27;20447;-72
2021/08/06 00:59:55;;;;;;;10.43;9.70;;;17.90;1.00;;;;;;5105051;27;21244;-72
2021/08/06 01:02:26;;;;;;;11.60;10.60;;;17.90;1.00;;;;;;5101206;27;20511;-71
2021/08/06 01:05:01;;;;;;;10.87;10.00;;;17.90;1.00;;;;;;5102692;27;21119;-72
2021/08/06 01:07:34;;;;;;;10.43;9.63;;;17.90;1.00;;;;;;5104888;27;20556;-73
2021/08/06 01:10:07;;;;;;;11.53;10.63;;;18.00;1.00;;;;;;5105876;27;20451;-73
2021/08/06 01:12:38;;;;;;;10.00;9.30;;;18.00;1.00;;;;;;5105510;27;20702;-73
2021/08/06 01:15:07;;;;;;;10.60;9.80;;;18.00;1.00;;;;;;5105091;27;21008;-73
2021/08/06 01:17:38;;;;;;;11.13;10.17;;;18.00;1.00;;;;;;5104467;27;22391;-73
2021/08/06 01:20:07;;;;;;;11.33;10.37;;;17.90;1.00;;;;;;5086576;27;20483;-73
2021/08/06 01:22:41;;;;;;;10.97;10.07;;;17.90;1.00;;;;;;5104937;27;20969;-74
2021/08/06 01:25:29;;;;;;;10.07;9.37;;;17.90;1.00;;;;;;5102621;27;21358;-73
2021/08/06 01:27:57;;;;;;;11.13;10.10;;;17.90;1.00;;;;;;5106096;27;20457;-73
2021/08/06 01:30:23;;;;;;;11.17;10.27;;;17.90;1.00;;;;;;5102923;27;20459;-74
2021/08/06 01:32:54;;;;;;;10.50;9.60;;;17.90;1.00;;;;;;5110242;27;20536;-73
2021/08/06 01:35:21;;;;;;;10.70;9.90;;;17.90;1.00;;;;;;5107429;27;20456;-74
2021/08/06 01:37:48;;;;;;;11.07;10.17;;;17.90;1.00;;;;;;5109056;27;20818;-72
2021/08/06 01:40:16;;;;;;;11.43;10.63;;;17.90;1.00;;;;;;5113404;27;20502;-72
2021/08/06 01:42:50;;;;;;;11.00;10.10;;;18.00;1.00;;;;;;5103717;27;20433;-72
2021/08/06 01:45:21;;;;;;;11.87;10.97;;;18.00;1.00;;;;;;5108371;27;20434;-71
2021/08/06 01:47:50;;;;;;;10.60;9.80;;;18.00;1.00;;;;;;5109062;27;20531;-72
2021/08/06 01:50:22;;;;;;;11.17;10.37;;;18.00;1.00;;;;;;5107420;27;20452;-71
2021/08/06 01:52:51;;;;;;;10.90;10.00;;;18.00;1.00;;;;;;5108201;27;21285;-71
2021/08/06 01:55:20;;;;;;;10.73;9.90;;;18.00;1.00;;;;;;5103315;27;20413;-71
2021/08/06 01:57:49;;;;;;;10.80;9.90;;;18.00;1.00;;;;;;5107241;27;20658;-74
2021/08/06 02:00:17;;;;;;;11.80;11.00;;;17.90;1.00;;;;;;5105929;27;21168;-73
2021/08/06 02:02:43;;;;;;;11.43;10.63;;;17.90;1.00;;;;;;5105171;27;21010;-73
2021/08/06 02:05:11;;;;;;;11.77;10.87;;;17.90;1.00;;;;;;5094486;27;21793;-73
2021/08/06 02:07:37;;;;;;;11.67;10.87;;;17.90;1.00;;;;;;5101923;27;20452;-74
2021/08/06 02:10:05;;;;;;;12.53;11.53;;;17.90;1.00;;;;;;5102307;27;20466;-73
2021/08/06 02:12:33;;;;;;;20.63;18.93;;;17.90;1.00;;;;;;5106095;27;21212;-71
2021/08/06 02:15:01;;;;;;;13.00;12.00;;;17.90;1.00;;;;;;5101570;27;21023;-72
2021/08/06 02:17:28;;;;;;;11.97;10.87;;;17.90;1.00;;;;;;5099068;27;20471;-72
2021/08/06 02:19:57;;;;;;;11.73;10.83;;;17.80;1.00;;;;;;5106218;27;20531;-72
2021/08/06 02:22:24;;;;;;;12.43;11.30;;;17.80;1.00;;;;;;5104948;27;20437;-73
2021/08/06 02:24:52;;;;;;;11.83;10.90;;;17.90;1.00;;;;;;5116024;27;23661;-73
2021/08/06 02:27:20;;;;;;;12.27;11.37;;;17.80;1.00;;;;;;5129115;27;21077;-72
2021/08/06 02:29:47;;;;;;;12.47;11.57;;;17.80;1.00;;;;;;5127865;27;20453;-72
2021/08/06 02:32:15;;;;;;;13.33;12.20;;;17.80;1.00;;;;;;5131608;27;20421;-73
2021/08/06 02:34:42;;;;;;;13.17;12.07;;;17.80;1.00;;;;;;5129920;27;23523;-74
2021/08/06 02:37:10;;;;;;;12.60;11.47;;;17.80;1.00;;;;;;5133489;27;20405;-73
2021/08/06 02:39:37;;;;;;;12.97;11.87;;;17.80;1.00;;;;;;5131964;27;20436;-72
2021/08/06 02:42:05;;;;;;;14.70;13.60;;;17.80;1.00;;;;;;5138717;27;21013;-72
2021/08/06 02:44:35;;;;;;;14.87;13.60;;;17.80;1.00;;;;;;5136728;27;20444;-73
2021/08/06 02:47:02;;;;;;;13.90;12.67;;;17.80;1.00;;;;;;5131556;27;20441;-73
2021/08/06 02:49:33;;;;;;;14.47;13.20;;;17.80;1.00;;;;;;5134196;27;21199;-73
2021/08/06 02:52:00;;;;;;;13.97;12.87;;;17.80;1.00;;;;;;5135480;27;20404;-72
2021/08/06 02:54:27;;;;;;;14.83;13.73;;;17.80;1.00;;;;;;5135450;27;20447;-72
2021/08/06 02:56:54;;;;;;;14.80;13.40;;;17.80;1.00;;;;;;5135096;27;20440;-72
2021/08/06 02:59:21;;;;;;;14.27;13.17;;;17.80;1.00;;;;;;5139290;27;20408;-71
2021/08/06 03:01:48;;;;;;;14.00;12.90;;;17.80;1.00;;;;;;5141843;27;20553;-72
2021/08/06 03:04:15;;;;;;;14.10;13.00;;;17.70;1.00;;;;;;5131777;27;20451;-72
2021/08/06 03:06:43;;;;;;;13.70;12.70;;;17.70;1.00;;;;;;5128532;27;20459;-72
2021/08/06 03:09:09;;;;;;;13.10;12.13;;;17.70;1.00;;;;;;5134846;27;20447;-72
2021/08/06 03:11:36;;;;;;;14.43;13.20;;;17.70;1.00;;;;;;5130186;27;20411;-73
2021/08/06 03:14:03;;;;;;;13.37;12.17;;;17.70;1.00;;;;;;5129398;27;20436;-72
2021/08/06 03:16:30;;;;;;;14.00;12.90;;;17.70;1.00;;;;;;5125269;27;20424;-72
2021/08/06 03:18:57;;;;;;;15.70;14.47;;;17.70;1.00;;;;;;5107615;27;22228;-72
2021/08/06 03:21:23;;;;;;;14.33;13.30;;;17.70;1.00;;;;;;5107068;27;21433;-72
2021/08/06 03:23:51;;;;;;;13.87;12.80;;;17.70;1.00;;;;;;5103939;27;21006;-73
2021/08/06 03:26:18;;;;;;;14.10;12.90;;;17.70;1.00;;;;;;5088503;27;20468;-72
2021/08/06 03:28:44;;;;;;;14.93;13.80;;;17.70;1.00;;;;;;5102426;27;20911;-73
2021/08/06 03:31:11;;;;;;;14.73;13.53;;;17.70;1.00;;;;;;5108215;27;20433;-72
2021/08/06 03:33:38;;;;;;;18.53;17.10;;;17.70;1.00;;;;;;5112550;27;20453;-72
2021/08/06 03:36:05;;;;;;;13.87;12.87;;;17.70;1.00;;;;;;5108163;27;21129;-73
2021/08/06 03:38:31;;;;;;;22.93;21.13;;;17.60;1.00;;;;;;5112131;27;20446;-73
2021/08/06 03:40:59;;;;;;;14.93;13.60;;;17.60;1.00;;;;;;5109304;27;20871;-73
2021/08/06 03:43:26;;;;;;;14.23;13.13;;;17.60;1.00;;;;;;5109623;27;21733;-73
2021/08/06 03:45:53;;;;;;;14.47;13.10;;;17.60;1.00;;;;;;5109807;27;20783;-74
2021/08/06 03:48:19;;;;;;;15.63;14.50;;;17.60;1.00;;;;;;5106835;27;20598;-72
2021/08/06 03:50:46;;;;;;;14.00;12.90;;;17.60;1.00;;;;;;5101773;27;20429;-73
2021/08/06 03:53:13;;;;;;;13.60;12.60;;;17.60;1.00;;;;;;5109997;27;20447;-73
2021/08/06 03:55:40;;;;;;;15.57;14.23;;;17.60;1.00;;;;;;5106755;27;20804;-73
2021/08/06 03:58:07;;;;;;;16.30;14.93;;;17.60;1.00;;;;;;5108055;27;20445;-73
2021/08/06 04:00:38;;;;;;;14.80;13.60;;;17.60;1.00;;;;;;5106986;27;20491;-72
2021/08/06 04:03:04;;;;;;;14.40;13.27;;;17.60;1.00;;;;;;5105882;27;20455;-72
2021/08/06 04:05:32;;;;;;;18.80;17.20;;;17.60;1.00;;;;;;5105356;27;20469;-71
2021/08/06 04:07:58;;;;;;;23.97;22.10;;;17.70;1.00;;;;;;5105304;27;21107;-72
2021/08/06 04:10:25;;;;;;;16.47;15.13;;;17.70;1.00;;;;;;5103928;27;20459;-73
2021/08/06 04:12:52;;;;;;;15.03;13.80;;;17.60;1.00;;;;;;5105707;27;20647;-72
2021/08/06 04:15:20;;;;;;;22.27;20.47;;;17.70;1.00;;;;;;5103885;27;20448;-72
2021/08/06 04:17:47;;;;;;;15.00;13.80;;;17.70;1.00;;;;;;5102777;27;20462;-71
2021/08/06 04:20:14;;;;;;;16.50;15.17;;;17.70;1.00;;;;;;5109215;27;22136;-73
2021/08/06 04:22:42;;;;;;;16.53;15.27;;;17.70;1.00;;;;;;5107110;27;20436;-73
2021/08/06 04:25:09;;;;;;;16.10;14.80;;;17.80;1.00;;;;;;5105816;27;20484;-72
2021/08/06 04:27:36;;;;;;;16.83;15.53;;;17.80;1.00;;;;;;5101534;27;20466;-73
2021/08/06 04:30:04;;;;;;;14.50;13.40;;;17.80;1.00;;;;;;5101699;27;20467;-72
2021/08/06 04:32:32;;;;;;;14.57;13.53;;;17.80;1.00;;;;;;5103544;27;20432;-74
2021/08/06 04:34:59;;;;;;;14.93;13.70;;;17.90;1.00;;;;;;5102322;27;20549;-74
2021/08/06 04:37:25;;;;;;;15.10;13.90;;;17.90;1.00;;;;;;5102318;27;21037;-73
2021/08/06 04:39:52;;;;;;;19.67;18.17;;;17.90;1.00;;;;;;5107455;27;20514;-73
2021/08/06 04:42:19;;;;;;;16.10;14.83;;;17.90;1.00;;;;;;5100871;27;21718;-73
2021/08/06 04:44:46;;;;;;;18.80;17.30;;;18.00;1.00;;;;;;5098550;27;20445;-73
2021/08/06 04:47:12;;;;;;;16.47;15.07;;;18.00;1.00;;;;;;5101506;27;20513;-73
2021/08/06 04:49:41;;;;;;;16.03;14.80;;;18.00;1.00;;;;;;5101247;27;20443;-73
2021/08/06 04:52:08;;;;;;;16.73;15.33;;;18.00;1.00;;;;;;5103671;27;20436;-73
2021/08/06 04:54:35;;;;;;;16.50;15.13;;;18.10;1.00;;;;;;5103715;27;20430;-73
2021/08/06 04:57:02;;;;;;;14.53;13.30;;;18.10;1.00;;;;;;5101683;27;20456;-73
2021/08/06 04:59:28;;;;;;;14.87;13.67;;;18.10;1.00;;;;;;5103924;27;20554;-73
2021/08/06 05:01:55;;;;;;;15.50;14.17;;;18.20;1.00;;;;;;5103044;27;20457;-72
2021/08/06 05:04:22;;;;;;;16.67;15.27;;;18.20;1.00;;;;;;5099625;27;20445;-73
2021/08/06 05:06:50;;;;;;;17.17;15.77;;;18.20;1.00;;;;;;5101672;27;20464;-74
2021/08/06 05:09:17;;;;;;;15.83;14.57;;;18.20;1.00;;;;;;5100186;27;20442;-74
2021/08/06 05:11:43;;;;;;;16.50;15.00;;;18.30;1.00;;;;;;5100781;27;20441;-72
2021/08/06 05:14:10;;;;;;;15.80;14.60;;;18.30;1.00;;;;;;5097422;27;20454;-75
2021/08/06 05:16:37;;;;;;;15.60;14.20;;;18.30;1.00;;;;;;5104545;27;20453;-73
2021/08/06 05:19:03;;;;;;;15.90;14.70;;;18.40;1.00;;;;;;5096301;27;20437;-75
2021/08/06 05:21:30;;;;;;;16.90;15.50;;;18.40;1.00;;;;;;5101258;27;20459;-74
2021/08/06 05:23:58;;;;;;;16.33;14.97;;;18.40;1.00;;;;;;5106524;27;20440;-74
2021/08/06 05:26:25;;;;;;;15.27;14.17;;;18.50;1.00;;;;;;5107730;27;24517;-72
2021/08/06 05:28:51;;;;;;;15.87;14.60;;;18.60;1.00;;;;;;5107442;27;21164;-74
2021/08/06 05:31:19;;;;;;;15.97;14.57;;;18.60;1.00;;;;;;5114296;27;20445;-78
2021/08/06 05:33:46;;;;;;;15.57;14.37;;;18.60;1.00;;;;;;5117178;27;20413;-77
2021/08/06 05:36:13;;;;;;;15.00;13.90;;;18.60;1.00;;;;;;5107967;27;20453;-77
2021/08/06 05:38:39;;;;;;;16.53;15.23;;;18.60;1.00;;;;;;5087466;27;20449;-77
2021/08/06 05:41:08;;;;;;;15.43;14.13;;;18.70;1.00;;;;;;5110039;27;20565;-78
2021/08/06 05:43:35;;;;;;;14.33;13.33;;;18.70;1.00;;;;;;5107034;27;20498;-78
2021/08/06 05:46:01;;;;;;;16.07;14.73;;;18.80;1.00;;;;;;5088090;27;20472;-80
2021/08/06 05:48:28;;;;;;;17.53;16.13;;;18.80;1.00;;;;;;5110337;27;20465;-79
2021/08/06 05:50:55;;;;;;;15.60;14.30;;;18.80;1.00;;;;;;5110832;27;20468;-75
2021/08/06 05:53:22;;;;;;;14.40;13.37;;;18.90;1.00;;;;;;5096233;27;21072;-77
2021/08/06 05:55:49;;;;;;;14.17;12.87;;;19.00;1.00;;;;;;5110662;27;20553;-78
2021/08/06 05:58:17;;;;;;;16.13;14.73;;;19.00;1.00;;;;;;5108379;27;20516;-79
2021/08/06 06:00:43;;;;;;;16.60;15.00;;;19.10;1.00;;;;;;5112233;27;20437;-78
2021/08/06 06:03:10;;;;;;;16.03;14.83;;;19.10;1.00;;;;;;5110978;27;20425;-80
2021/08/06 06:05:39;;;;;;;14.47;13.37;;;19.10;1.00;;;;;;5115626;27;20469;-78
2021/08/06 06:08:06;;;;;;;14.73;13.27;;;19.20;1.00;;;;;;5089628;27;20444;-79
2021/08/06 06:10:33;;;;;;;14.53;13.30;;;19.20;1.00;;;;;;5114622;27;20446;-76
2021/08/06 06:12:59;;;;;;;14.90;13.77;;;19.20;1.00;;;;;;5111481;27;20951;-80
2021/08/06 06:15:28;;;;;;;15.90;14.53;;;19.30;1.00;;;;;;5115648;27;21205;-78
2021/08/06 06:17:55;;;;;;;14.97;13.87;;;19.30;1.00;;;;;;5112876;27;20447;-78
2021/08/06 06:20:22;;;;;;;15.70;14.30;;;19.40;1.00;;;;;;5094729;27;20446;-78
2021/08/06 06:22:49;;;;;;;16.63;15.20;;;19.40;1.00;;;;;;5115630;27;20459;-79
2021/08/06 06:25:16;;;;;;;15.37;14.13;;;19.50;1.00;;;;;;5121615;27;20453;-78
2021/08/06 06:27:51;;;;;;;17.57;15.97;;;19.50;1.00;;;;;;5118993;27;20457;-76
2021/08/06 06:30:21;;;;;;;14.60;13.40;;;19.50;1.00;;;;;;5120999;27;20487;-78
2021/08/06 06:32:49;;;;;;;15.20;13.80;;;19.60;1.00;;;;;;5121827;27;20485;-78
2021/08/06 06:35:17;;;;;;;20.23;14.87;;;19.70;1.00;;;;;;5133322;27;20448;-78
2021/08/06 06:37:44;;;;;;;20.53;18.80;;;19.70;1.00;;;;;;5107293;27;20446;-80
2021/08/06 06:40:12;;;;;;;18.90;16.10;;;19.80;1.00;;;;;;5118872;27;20428;-77
2021/08/06 06:42:41;;;;;;;18.63;15.03;;;19.90;1.00;;;;;;5118899;27;20457;-77
2021/08/06 06:45:09;;;;;;;17.80;16.07;;;19.90;1.00;;;;;;5130525;27;20540;-75
2021/08/06 06:47:38;;;;;;;16.90;15.20;;;20.00;1.00;;;;;;5112446;27;20895;-76
2021/08/06 06:50:09;;;;;;;16.70;15.30;;;20.10;1.00;;;;;;5114255;27;20484;-77
2021/08/06 06:52:36;;;;;;;14.87;13.30;;;20.20;1.00;;;;;;5094094;27;20448;-77
2021/08/06 06:55:03;;;;;;;16.83;12.90;;;20.30;1.00;;;;;;5110645;27;20481;-77
2021/08/06 06:57:29;;;;;;;14.63;13.30;;;20.30;1.00;;;;;;5108457;27;20515;-76
2021/08/06 06:59:56;;;;;;;14.33;12.40;;;20.40;1.00;;;;;;5111779;27;21515;-75
2021/08/06 07:02:23;;;;;;;13.00;12.00;;;20.50;1.00;;;;;;5117237;27;20446;-79
2021/08/06 07:04:50;;;;;;;12.47;11.47;;;20.60;1.00;;;;;;5114901;27;20502;-78
2021/08/06 07:07:23;;;;;;;13.00;11.70;;;20.70;1.00;;;;;;5117482;27;20498;-78
2021/08/06 07:09:49;;;;;;;11.17;10.27;;;20.80;1.00;;;;;;5115996;27;20585;-80
2021/08/06 07:12:16;;;;;;;12.33;11.33;;;20.80;1.00;;;;;;5120734;27;20467;-79
2021/08/06 07:14:43;;;;;;;12.03;11.10;;;20.90;1.00;;;;;;5120122;27;21275;-80
2021/08/06 07:17:09;;;;;;;11.40;10.50;;;20.90;1.00;;;;;;5117523;27;20533;-78
2021/08/06 07:19:36;;;;;;;14.60;12.00;;;20.90;1.00;;;;;;5116570;27;20576;-80
2021/08/06 07:22:03;;;;;;;11.90;10.80;;;20.90;1.00;;;;;;5113586;27;20471;-78
2021/08/06 07:24:31;;;;;;;11.90;10.80;;;21.00;1.00;;;;;;5124685;27;20457;-79
2021/08/06 07:26:58;;;;;;;10.13;9.33;;;21.10;1.00;;;;;;5131414;27;20460;-79
2021/08/06 07:29:25;;;;;;;10.30;9.40;;;21.10;1.00;;;;;;5130994;27;20444;-78
2021/08/06 07:31:52;;;;;;;11.60;10.63;;;21.20;1.00;;;;;;5128380;27;20457;-78
2021/08/06 07:34:19;;;;;;;10.17;9.37;;;21.20;1.00;;;;;;5121428;27;21246;-78
2021/08/06 07:36:46;;;;;;;9.80;9.00;;;21.30;1.00;;;;;;5122869;27;20427;-79
2021/08/06 07:39:14;;;;;;;10.60;9.57;;;21.30;1.00;;;;;;5122941;27;20696;-77
2021/08/06 07:41:42;;;;;;;9.30;8.60;;;21.40;1.00;;;;;;5118494;27;21188;-79
2021/08/06 07:44:09;;;;;;;8.77;8.07;;;21.50;1.00;;;;;;5123452;27;20498;-79
2021/08/06 07:46:38;;;;;;;9.30;8.60;;;21.80;1.00;;;;;;5123051;27;20441;-78
2021/08/06 07:49:05;;;;;;;8.57;7.77;;;22.10;1.00;;;;;;5131656;27;21462;-77
2021/08/06 07:51:32;;;;;;;9.50;8.50;;;22.30;1.00;;;;;;5123006;27;20449;-80
2021/08/06 07:54:00;;;;;;;8.77;8.03;;;22.40;1.00;;;;;;5124846;27;20448;-78
2021/08/06 07:56:26;;;;;;;9.77;7.80;;;22.30;1.00;;;;;;5123875;27;20649;-79
2021/08/06 07:58:57;;;;;;;8.63;7.90;;;22.20;1.00;;;;;;5120227;27;20448;-77
2021/08/06 08:01:24;;;;;;;8.87;8.17;;;22.10;1.00;;;;;;5124803;27;21240;-79
2021/08/06 08:03:51;;;;;;;8.80;7.60;;;22.10;1.00;;;;;;5133644;27;20464;-78
2021/08/06 08:06:18;;;;;;;8.30;7.50;;;22.10;1.00;;;;;;5134076;27;20431;-78
2021/08/06 08:08:44;;;;;;;11.53;8.50;;;22.20;1.00;;;;;;5138883;27;20485;-80
2021/08/06 08:11:11;;;;;;;8.23;7.60;;;22.30;1.00;;;;;;5113571;27;20575;-78
2021/08/06 08:13:38;;;;;;;7.97;7.33;;;22.20;1.00;;;;;;5130765;27;20436;-78
2021/08/06 08:16:06;;;;;;;7.50;7.00;;;22.10;1.00;;;;;;5132337;27;20877;-80
2021/08/06 08:18:33;;;;;;;7.90;7.30;;;22.00;1.00;;;;;;5125872;27;20480;-77
2021/08/06 08:21:00;;;;;;;8.33;7.27;;;22.00;1.00;;;;;;5121301;27;20840;-77
2021/08/06 08:23:27;;;;;;;9.73;8.00;;;22.00;1.00;;;;;;5116103;27;20455;-76
2021/08/06 08:25:54;;;;;;;6.80;6.20;;;22.00;1.00;;;;;;5116517;27;20442;-78
2021/08/06 08:28:22;;;;;;;6.40;5.90;;;22.10;1.00;;;;;;5131062;27;20472;-78
2021/08/06 08:30:49;;;;;;;9.13;6.03;;;22.20;1.00;;;;;;5120872;27;20446;-78
2021/08/06 08:33:17;;;;;;;6.60;6.07;;;22.40;1.00;;;;;;5122899;27;20604;-77
2021/08/06 08:35:45;;;;;;;7.30;6.70;;;22.50;1.00;;;;;;5105919;27;21240;-78
2021/08/06 08:38:12;;;;;;;9.50;7.30;;;22.50;1.00;;;;;;5123291;27;20537;-80
2021/08/06 08:40:39;;;;;;;6.63;6.03;;;22.70;1.00;;;;;;5122297;27;20543;-77
2021/08/06 08:43:07;;;;;;;8.80;6.87;;;22.90;1.00;;;;;;5120507;27;20452;-76
2021/08/06 08:45:39;;;;;;;6.63;6.03;;;23.10;1.00;;;;;;5122810;27;20444;-79
2021/08/06 08:48:07;;;;;;;6.77;6.13;;;23.20;1.00;;;;;;5119693;27;20482;-78
2021/08/06 08:50:36;;;;;;;6.47;5.93;;;23.30;1.00;;;;;;5117222;27;20425;-76
2021/08/06 08:53:03;;;;;;;6.70;6.20;;;23.30;1.00;;;;;;5117192;27;20543;-79
2021/08/06 08:55:29;;;;;;;6.00;5.50;;;23.40;1.00;;;;;;5117638;27;20940;-77
2021/08/06 08:57:56;;;;;;;7.37;6.60;;;23.60;1.00;;;;;;5122662;27;20990;-76
2021/08/06 09:00:23;;;;;;;5.67;5.17;;;23.80;1.00;;;;;;5118748;27;20551;-77
2021/08/06 09:02:50;;;;;;;34.80;15.10;;;24.00;1.00;;;;;;5122613;27;20521;-80
2021/08/06 09:05:19;;;;;;;6.00;5.50;;;24.10;1.00;;;;;;5118045;27;23915;-80
2021/08/06 09:07:49;;;;;;;5.60;5.10;;;24.10;1.00;;;;;;5119476;27;20456;-76
2021/08/06 09:10:19;;;;;;;6.03;5.43;;;24.10;1.00;;;;;;5116941;27;21436;-77
2021/08/06 09:12:52;;;;;;;4.70;4.27;;;24.20;1.00;;;;;;5111445;27;20543;-75
2021/08/06 09:15:40;;;;;;;6.40;4.60;;;24.20;1.00;;;;;;5118453;27;20441;-75
2021/08/06 09:18:27;;;;;;;4.80;4.30;;;24.20;1.00;;;;;;5105983;27;20545;-75
2021/08/06 09:20:56;;;;;;;4.57;4.20;;;24.20;1.00;;;;;;5114320;27;20438;-74
2021/08/06 09:23:45;;;;;;;6.80;4.90;;;24.20;1.00;;;;;;5117557;27;20456;-76
2021/08/06 09:26:38;;;;;;;3.67;3.37;;;24.40;1.00;;;;;;5111065;27;20519;-75
2021/08/06 09:29:07;;;;;;;3.30;3.00;;;24.60;1.00;;;;;;5105668;27;20552;-76
2021/08/06 09:31:36;;;;;;;4.90;4.20;;;24.80;1.00;;;;;;5105310;27;20416;-74
2021/08/06 09:34:24;;;;;;;4.90;4.50;;;25.10;1.00;;;;;;5107194;27;20458;-75
2021/08/06 09:36:57;;;;;;;4.80;4.17;;;25.80;1.00;;;;;;5106643;27;20776;-75
2021/08/06 09:39:29;;;;;;;4.30;4.00;;;26.80;1.00;;;;;;5112575;27;20422;-73
2021/08/06 09:41:56;;;;;;;4.67;4.33;;;27.80;1.00;;;;;;5105969;27;21629;-74
2021/08/06 09:44:26;;;;;;;4.27;3.80;;;28.30;1.00;;;;;;5108959;27;20532;-75
2021/08/06 09:46:53;;;;;;;4.17;3.80;;;29.40;1.00;;;;;;5107085;27;20459;-74
2021/08/06 09:49:21;;;;;;;3.80;3.50;;;30.40;1.00;;;;;;5108374;27;20436;-73
2021/08/06 09:51:50;;;;;;;3.60;3.30;;;31.40;1.00;;;;;;5109552;27;20555;-75
2021/08/06 09:54:18;;;;;;;3.20;3.00;;;31.90;1.00;;;;;;5106227;27;20613;-74
2021/08/06 09:56:48;;;;;;;3.87;3.40;;;32.10;1.00;;;;;;5104534;27;20524;-74
2021/08/06 09:59:28;;;;;;;4.30;3.50;;;32.70;1.00;;;;;;5117959;27;20438;-79
2021/08/06 10:02:11;;;;;;;3.47;2.70;;;33.10;1.00;;;;;;5117100;27;20456;-76
2021/08/06 10:04:38;;;;;;;4.27;3.00;;;33.00;1.00;;;;;;5112591;27;20547;-76
2021/08/06 10:07:06;;;;;;;3.33;3.07;;;33.20;1.00;;;;;;5110777;27;20456;-76
2021/08/06 10:09:33;;;;;;;3.10;2.83;;;33.20;1.00;;;;;;5114161;27;20543;-77
2021/08/06 10:12:02;;;;;;;4.40;3.13;;;33.30;1.00;;;;;;5111982;27;20457;-77
2021/08/06 10:14:28;;;;;;;4.50;3.03;;;33.30;1.00;;;;;;5119925;27;20519;-76
2021/08/06 10:16:55;;;;;;;3.03;2.73;;;32.20;1.00;;;;;;5117969;27;20458;-75
2021/08/06 10:19:23;;;;;;;3.30;3.00;;;30.70;1.00;;;;;;5117305;27;21456;-77
2021/08/06 10:21:50;;;;;;;3.47;2.50;;;30.20;1.00;;;;;;5096398;27;20459;-78
2021/08/06 10:24:17;;;;;;;3.60;2.93;;;30.10;1.00;;;;;;5109455;27;20449;-77
2021/08/06 10:26:45;;;;;;;4.20;2.67;;;30.60;1.00;;;;;;5112486;27;20439;-77
2021/08/06 10:29:14;;;;;;;5.00;3.43;;;31.60;1.00;;;;;;5112176;27;21093;-77
2021/08/06 10:31:42;;;;;;;2.77;2.57;;;32.20;1.00;;;;;;5119935;27;20447;-76
2021/08/06 10:34:10;;;;;;;3.23;2.80;;;31.80;1.00;;;;;;5111245;27;20544;-76
2021/08/06 10:36:43;;;;;;;3.67;3.37;;;31.30;1.00;;;;;;5117481;27;20436;-76
2021/08/06 10:39:43;;;;;;;3.27;2.93;;;32.60;1.00;;;;;;5113397;27;21717;-76
2021/08/06 10:42:13;;;;;;;3.03;2.80;;;34.00;1.00;;;;;;5107328;27;21144;-77
2021/08/06 10:44:57;;;;;;;4.23;3.40;;;34.00;1.00;;;;;;5107408;27;20642;-77
2021/08/06 10:47:51;;;;;;;10.43;5.00;;;34.20;1.00;;;;;;5104750;27;20412;-75
2021/08/06 10:50:20;;;;;;;3.57;3.27;;;34.10;1.00;;;;;;5113851;27;20460;-76
2021/08/06 10:53:16;;;;;;;4.30;3.00;;;33.60;1.00;;;;;;5111828;27;20457;-76
2021/08/06 10:55:43;;;;;;;3.53;2.67;;;32.60;1.00;;;;;;5111964;27;20954;-77
2021/08/06 10:58:10;;;;;;;4.00;3.30;;;31.60;1.00;;;;;;5112844;27;21196;-77
2021/08/06 11:00:39;;;;;;;3.47;2.90;;;30.70;1.00;;;;;;5116413;27;20480;-77
2021/08/06 11:03:35;;;;;;;3.60;2.73;;;30.40;1.00;;;;;;5113661;27;20462;-77
2021/08/06 11:06:31;;;;;;;4.60;4.20;;;31.40;1.00;;;;;;5111580;27;20464;-77
2021/08/06 11:08:58;;;;;;;3.13;2.90;;;33.20;1.00;;;;;;5110565;27;20457;-77
2021/08/06 11:11:52;;;;;;;2.80;2.60;;;34.90;1.00;;;;;;5111441;27;20428;-76
2021/08/06 11:14:58;;;;;;;3.30;2.93;;;35.90;1.00;;;;;;5108188;27;20453;-76
2021/08/06 11:17:40;;;;;;;2.80;2.60;;;34.50;1.00;;;;;;5114584;27;20448;-77
2021/08/06 11:20:11;;;;;;;4.10;3.70;;;33.60;1.00;;;;;;5094667;27;20413;-76
2021/08/06 11:22:39;;;;;;;4.00;3.00;;;34.50;1.00;;;;;;5111230;27;20469;-76
2021/08/06 11:25:12;;;;;;;3.20;2.93;;;35.20;1.00;;;;;;5112034;27;21460;-77
2021/08/06 11:27:40;;;;;;;3.77;3.37;;;35.50;1.00;;;;;;5118553;27;20463;-76
2021/08/06 11:30:10;;;;;;;3.77;2.90;;;35.40;1.00;;;;;;5120067;27;20441;-76
2021/08/06 11:32:56;;;;;;;3.30;3.00;;;35.30;1.00;;;;;;5131472;27;20461;-76
2021/08/06 11:35:24;;;;;;;3.60;3.30;;;35.20;1.00;;;;;;5127389;27;20467;-75
2021/08/06 11:37:54;;;;;;;3.20;2.90;;;35.10;1.00;;;;;;5126046;27;20460;-76
2021/08/06 11:40:23;;;;;;;3.87;3.57;;;35.80;1.00;;;;;;5135300;27;20467;-77
2021/08/06 11:42:51;;;;;;;3.53;3.17;;;36.20;1.00;;;;;;5151950;27;20397;-75
2021/08/06 11:45:23;;;;;;;3.67;2.80;;;37.10;1.00;;;;;;5152741;27;20402;-79
2021/08/06 11:47:51;;;;;;;4.10;3.50;;;37.60;1.00;;;;;;5152948;27;20425;-78
2021/08/06 11:50:21;;;;;;;4.17;3.50;;;37.90;1.00;;;;;;5152510;27;20390;-77
2021/08/06 11:52:50;;;;;;;3.33;3.03;;;35.30;1.00;;;;;;5135734;27;20569;-76
2021/08/06 11:55:19;;;;;;;3.50;3.20;;;33.00;1.00;;;;;;5156311;27;20477;-75
2021/08/06 11:57:48;;;;;;;4.50;4.10;;;31.90;1.00;;;;;;5153214;27;21542;-76
2021/08/06 12:00:21;;;;;;;3.40;3.10;;;31.40;1.00;;;;;;5151715;27;20455;-77
2021/08/06 12:03:10;;;;;;;3.33;3.03;;;31.30;1.00;;;;;;5147266;27;20492;-76
2021/08/06 12:05:40;;;;;;;3.60;3.30;;;31.20;1.00;;;;;;5136962;27;20456;-77
2021/08/06 12:08:22;;;;;;;5.50;4.00;;;31.20;1.00;;;;;;5151265;27;20446;-77
2021/08/06 12:10:50;;;;;;;4.17;3.67;;;30.80;1.00;;;;;;5145897;27;20463;-76
2021/08/06 12:13:21;;;;;;;5.77;4.30;;;30.50;1.00;;;;;;5147509;27;20460;-76
2021/08/06 12:15:48;;;;;;;3.37;3.07;;;30.20;1.00;;;;;;5140066;27;20403;-76
2021/08/06 12:18:17;;;;;;;3.40;3.10;;;29.90;1.00;;;;;;5119348;27;20447;-77
2021/08/06 12:20:48;;;;;;;4.50;4.10;;;29.50;1.00;;;;;;5140361;27;20400;-77
2021/08/06 12:23:18;;;;;;;4.10;3.60;;;29.00;1.00;;;;;;5137009;27;20462;-77
2021/08/06 12:26:07;;;;;;;3.23;3.03;;;28.80;1.00;;;;;;5136546;27;21420;-77
2021/08/06 12:28:36;;;;;;;5.40;3.60;;;28.90;1.00;;;;;;5112145;27;21165;-77
2021/08/06 12:31:11;;;;;;;4.43;3.67;;;30.40;1.00;;;;;;5120391;27;21947;-77
2021/08/06 12:33:39;;;;;;;3.50;3.20;;;33.10;1.00;;;;;;5121692;27;20467;-76
2021/08/06 12:36:12;;;;;;;4.57;3.73;;;35.20;1.00;;;;;;5111800;27;21062;-75
2021/08/06 12:38:39;;;;;;;2.83;2.63;;;36.50;1.00;;;;;;5115936;27;20537;-77
2021/08/06 12:41:06;;;;;;;3.13;2.83;;;36.90;1.00;;;;;;5114786;27;22966;-79
2021/08/06 12:43:35;;;;;;;3.90;3.50;;;36.60;1.00;;;;;;5121908;27;20455;-76
2021/08/06 12:46:16;;;;;;;7.13;3.73;;;35.20;1.00;;;;;;5116609;27;20474;-77
2021/08/06 12:49:05;;;;;;;4.03;3.17;;;34.20;1.00;;;;;;5115399;27;20537;-77
2021/08/06 12:51:34;;;;;;;4.10;3.20;;;35.90;1.00;;;;;;5122302;27;20471;-77
2021/08/06 12:54:01;;;;;;;2.90;2.70;;;37.30;1.00;;;;;;5117720;27;20460;-78
2021/08/06 12:56:28;;;;;;;3.80;2.90;;;37.60;1.00;;;;;;5112918;27;20402;-76